Time;durP1;ratioP1;P1;durP2;ratioP2;P2;SDS_P1;SDS_P2;PMS_P1;PMS_P2;Temp;Humidity;BMP_temperature;BMP_pressure;BME280_temperature;BME280_humidity;BME280_pressure;Samples;Min_cycle;Max_cycle;Signal;HPM_P1;HPM_P2
2023/06/29 00:00:58;;;;;;;1.40;1.30;;;15.10;1.00;;;;;;5134470;23;20051;-70
2023/06/29 00:03:34;;;;;;;1.58;1.48;;;15.10;1.00;;;;;;5098353;28;20044;-71
2023/06/29 00:06:05;;;;;;;2.92;1.45;;;15.10;1.00;;;;;;5083724;29;20048;-72
2023/06/29 00:08:37;;;;;;;1.50;1.40;;;15.10;1.00;;;;;;5095407;29;20523;-72
2023/06/29 00:11:14;;;;;;;1.58;1.48;;;15.10;1.00;;;;;;5079089;28;20036;-71
2023/06/29 00:13:47;;;;;;;1.27;1.20;;;15.00;1.00;;;;;;5081091;28;20046;-71
2023/06/29 00:16:19;;;;;;;2.05;1.50;;;15.00;1.00;;;;;;5094834;29;20123;-69
2023/06/29 00:18:56;;;;;;;1.80;1.70;;;15.00;1.00;;;;;;5094363;29;20062;-71
2023/06/29 00:21:31;;;;;;;1.73;1.23;;;15.00;1.00;;;;;;5073590;28;20091;-71
2023/06/29 00:24:03;;;;;;;2.33;1.40;;;14.90;1.00;;;;;;5063851;29;20044;-72
2023/06/29 00:26:34;;;;;;;1.35;1.25;;;15.00;1.00;;;;;;5079465;29;20332;-72
2023/06/29 00:29:11;;;;;;;1.23;1.15;;;15.00;1.00;;;;;;5084702;28;20046;-72
2023/06/29 00:31:42;;;;;;;1.60;1.50;;;15.00;1.00;;;;;;5094649;29;20073;-71
2023/06/29 00:34:16;;;;;;;1.55;1.30;;;15.00;1.00;;;;;;5098101;29;20046;-71
2023/06/29 00:36:48;;;;;;;1.48;1.38;;;15.00;99.90;;;;;;5097423;29;20035;-70
2023/06/29 00:39:19;;;;;;;1.50;1.40;;;15.20;99.90;;;;;;5098870;29;20040;-71
2023/06/29 00:41:56;;;;;;;1.30;1.20;;;15.10;99.90;;;;;;5081581;29;20027;-70
2023/06/29 00:44:28;;;;;;;1.88;1.30;;;15.20;99.90;;;;;;5098286;29;20050;-72
2023/06/29 00:47:00;;;;;;;5.00;1.30;;;15.20;99.90;;;;;;5094690;29;20324;-71
2023/06/29 00:49:36;;;;;;;1.27;1.20;;;15.10;99.90;;;;;;5081630;29;20027;-70
2023/06/29 00:52:10;;;;;;;5.38;1.50;;;15.10;99.90;;;;;;5085307;28;20040;-71
2023/06/29 00:54:44;;;;;;;3.85;2.38;;;15.00;99.90;;;;;;5097860;29;20054;-71
2023/06/29 00:57:18;;;;;;;1.60;1.50;;;15.00;1.00;;;;;;5092201;29;20028;-71
2023/06/29 00:59:49;;;;;;;1.60;1.50;;;14.90;1.00;;;;;;5073908;29;20046;-71
2023/06/29 01:02:23;;;;;;;1.00;1.00;;;14.90;1.00;;;;;;5122742;22;20061;-86
2023/06/29 01:04:57;;;;;;;2.80;1.67;;;14.90;1.00;;;;;;5093904;29;20039;-85
2023/06/29 01:07:52;;;;;;;1.90;1.77;;;14.90;1.00;;;;;;5187636;28;20027;-85
2023/06/29 01:10:30;;;;;;;;;;;14.90;1.00;;;;;;5106349;28;20325;-86
2023/06/29 01:13:05;;;;;;;1.50;1.40;;;14.90;1.00;;;;;;5120795;28;20173;-87
2023/06/29 01:15:43;;;;;;;1.42;1.33;;;14.90;99.90;;;;;;5120378;29;20045;-87
2023/06/29 01:18:18;;;;;;;1.63;1.52;;;14.90;1.00;;;;;;5104883;29;20035;-87
2023/06/29 01:20:52;;;;;;;1.50;1.40;;;14.90;1.00;;;;;;5106179;28;20038;-87
2023/06/29 01:23:27;;;;;;;1.55;1.45;;;14.90;1.00;;;;;;5105544;28;20027;-87
2023/06/29 01:26:00;;;;;;;1.38;1.27;;;14.80;1.00;;;;;;5105542;28;20313;-88
2023/06/29 01:28:38;;;;;;;1.30;1.20;;;14.80;1.00;;;;;;5089448;28;20339;-87
2023/06/29 01:31:11;;;;;;;2.80;1.40;;;14.80;1.00;;;;;;5103494;29;20041;-87
2023/06/29 01:33:44;;;;;;;1.40;1.30;;;14.60;1.00;;;;;;5104300;28;20042;-87
2023/06/29 01:36:23;;;;;;;1.52;1.27;;;14.60;1.00;;;;;;5106006;28;20189;-86
2023/06/29 01:39:10;;;;;;;1.88;1.38;;;14.60;99.90;;;;;;5104995;28;20035;-86
2023/06/29 01:41:45;;;;;;;2.25;1.60;;;14.50;99.90;;;;;;5105082;28;20031;-86
2023/06/29 01:44:18;;;;;;;1.48;1.38;;;14.40;1.00;;;;;;5104396;28;20313;-85
2023/06/29 01:46:55;;;;;;;2.88;1.35;;;14.30;1.00;;;;;;5105687;28;20032;-86
2023/06/29 01:49:28;;;;;;;2.22;1.15;;;14.30;1.00;;;;;;5103626;29;20041;-86
2023/06/29 01:51:59;;;;;;;1.75;1.65;;;14.30;1.00;;;;;;5105082;28;20344;-85
2023/06/29 01:54:31;;;;;;;2.00;1.80;;;14.30;99.90;;;;;;5105576;28;20335;-85
2023/06/29 01:57:09;;;;;;;1.35;1.25;;;14.20;99.90;;;;;;5104559;28;20037;-86
2023/06/29 01:59:42;;;;;;;1.70;1.60;;;14.10;1.00;;;;;;5104521;28;20348;-85
2023/06/29 02:02:32;;;;;;;2.25;1.98;;;14.00;1.00;;;;;;5125748;28;20030;-85
2023/06/29 02:05:03;;;;;;;1.70;1.60;;;13.90;99.90;;;;;;5086369;28;20039;-85
2023/06/29 02:07:35;;;;;;;1.73;1.52;;;13.80;99.90;;;;;;5206261;28;20031;-85
2023/06/29 02:10:08;;;;;;;1.60;1.50;;;13.80;99.90;;;;;;5154460;28;20031;-85
2023/06/29 02:12:42;;;;;;;1.55;1.45;;;13.80;99.90;;;;;;5140238;28;20219;-85
2023/06/29 02:18:41;;;;;;;2.45;1.40;;;13.70;1.00;;;;;;5139794;28;20317;-85
2023/06/29 02:21:13;;;;;;;2.13;1.92;;;13.70;1.00;;;;;;5140165;28;20034;-86
2023/06/29 02:23:44;;;;;;;1.83;1.70;;;13.80;99.90;;;;;;5138313;28;20031;-86
2023/06/29 02:26:19;;;;;;;2.05;1.92;;;13.80;99.90;;;;;;5140567;28;20041;-86
2023/06/29 02:28:51;;;;;;;3.90;1.90;;;13.90;99.90;;;;;;5138218;28;20030;-85
2023/06/29 02:31:24;;;;;;;4.13;1.50;;;13.90;99.90;;;;;;5138173;28;20027;-85
2023/06/29 02:33:55;;;;;;;1.45;1.35;;;13.80;99.90;;;;;;5122769;28;20277;-85
2023/06/29 02:36:30;;;;;;;1.38;1.27;;;13.80;99.90;;;;;;5138227;28;20039;-85
2023/06/29 02:39:02;;;;;;;2.13;1.77;;;13.90;51.70;;;;;;5106792;28;20210;-86
2023/06/29 02:41:38;;;;;;;2.10;1.90;;;14.00;1.00;;;;;;5107347;28;20045;-85
2023/06/29 02:44:13;;;;;;;2.05;1.70;;;14.10;1.00;;;;;;5154645;28;20031;-85
2023/06/29 02:46:49;;;;;;;1.80;1.63;;;14.10;1.00;;;;;;5121660;28;20037;-86
2023/06/29 02:49:21;;;;;;;1.60;1.50;;;14.00;1.00;;;;;;5122346;28;20220;-85
2023/06/29 02:51:54;;;;;;;1.55;1.45;;;14.00;1.00;;;;;;5138499;28;20041;-86
2023/06/29 02:54:26;;;;;;;1.70;1.60;;;14.00;1.00;;;;;;5107479;28;20071;-85
2023/06/29 02:56:57;;;;;;;1.40;1.30;;;13.90;99.90;;;;;;5138570;28;20041;-86
2023/06/29 02:59:31;;;;;;;1.50;1.40;;;13.90;99.90;;;;;;5138287;28;20041;-86
2023/06/29 03:02:06;;;;;;;3.08;2.47;;;13.80;99.90;;;;;;5122505;28;20037;-86
2023/06/29 03:08:11;;;;;;;2.20;1.58;;;13.80;99.90;;;;;;5138246;28;20029;-85
2023/06/29 03:10:43;;;;;;;3.13;1.42;;;13.70;1.00;;;;;;5139915;28;20323;-86
2023/06/29 03:13:14;;;;;;;1.52;1.42;;;13.60;1.00;;;;;;5139010;28;20041;-88
2023/06/29 03:19:14;;;;;;;1.80;1.70;;;13.60;1.00;;;;;;5140392;28;20178;-85
2023/06/29 03:21:48;;;;;;;1.80;1.70;;;13.60;1.00;;;;;;5122619;28;20327;-86
2023/06/29 03:27:47;;;;;;;3.10;2.58;;;13.80;1.00;;;;;;5138980;28;20200;-86
2023/06/29 03:30:22;;;;;;;1.60;1.50;;;14.00;1.00;;;;;;5145658;28;20037;-87
2023/06/29 03:32:55;;;;;;;1.85;1.60;;;14.10;1.00;;;;;;5126804;28;20043;-86
2023/06/29 03:38:41;;;;;;;1.98;1.73;;;14.50;1.00;;;;;;5197886;28;20057;-71
2023/06/29 03:41:14;;;;;;;6.00;1.80;;;14.90;99.90;;;;;;5196819;28;20045;-71
2023/06/29 03:43:45;;;;;;;1.48;1.38;;;15.40;1.00;;;;;;5165737;28;20044;-72
2023/06/29 03:46:17;;;;;;;2.90;1.75;;;15.60;99.90;;;;;;5157764;28;20048;-71
2023/06/29 03:48:51;;;;;;;1.98;1.48;;;15.90;99.90;;;;;;5177189;28;20038;-71
2023/06/29 03:51:22;;;;;;;2.22;1.88;;;16.20;99.90;;;;;;5176489;28;20032;-72
2023/06/29 03:53:54;;;;;;;2.17;1.83;;;16.40;1.00;;;;;;5188160;28;20047;-72
2023/06/29 03:56:28;;;;;;;1.45;1.35;;;16.50;1.00;;;;;;5164529;28;20037;-72
2023/06/29 03:58:59;;;;;;;2.95;1.42;;;16.60;1.00;;;;;;5183325;28;20037;-72
2023/06/29 04:01:33;;;;;;;1.60;1.50;;;16.80;1.00;;;;;;5153684;28;20037;-73
2023/06/29 04:04:04;;;;;;;1.70;1.50;;;16.80;99.90;;;;;;5141448;28;20060;-72
2023/06/29 04:06:38;;;;;;;2.63;1.77;;;16.90;67.20;;;;;;5129112;28;20537;-72
2023/06/29 04:09:11;;;;;;;1.60;1.40;;;17.20;42.90;;;;;;5145735;28;20038;-71
2023/06/29 04:11:45;;;;;;;1.50;1.40;;;17.30;1.00;;;;;;5146051;28;20033;-71
2023/06/29 04:14:19;;;;;;;1.50;1.40;;;17.30;1.00;;;;;;5164723;28;20037;-72
2023/06/29 04:16:53;;;;;;;1.65;1.55;;;17.50;1.00;;;;;;5155619;28;20034;-72
2023/06/29 04:19:30;;;;;;;1.50;1.40;;;17.60;1.00;;;;;;5162821;28;20038;-71
2023/06/29 04:22:01;;;;;;;2.20;1.27;;;17.70;99.90;;;;;;5179494;28;20029;-70
2023/06/29 04:24:33;;;;;;;1.92;1.45;;;17.80;99.90;;;;;;5154201;28;20042;-72
2023/06/29 04:27:04;;;;;;;1.35;1.20;;;18.10;99.90;;;;;;5176904;28;20044;-72
2023/06/29 04:29:36;;;;;;;1.40;1.30;;;18.20;99.90;;;;;;5184478;28;20033;-71
2023/06/29 04:32:10;;;;;;;4.60;1.50;;;18.50;1.00;;;;;;5165986;28;20034;-72
2023/06/29 04:34:47;;;;;;;1.55;1.45;;;18.70;1.00;;;;;;5151235;28;20034;-72
2023/06/29 04:37:21;;;;;;;1.88;1.17;;;18.80;1.00;;;;;;5150119;28;20034;-72
2023/06/29 04:39:52;;;;;;;1.70;1.60;;;19.00;99.90;;;;;;5181118;28;20109;-71
2023/06/29 04:42:30;;;;;;;1.80;1.40;;;19.10;99.90;;;;;;5161054;28;20040;-72
2023/06/29 04:45:08;;;;;;;2.05;1.23;;;19.20;99.90;;;;;;5145513;28;20049;-71
2023/06/29 04:47:44;;;;;;;1.40;1.30;;;19.30;40.70;;;;;;5149004;28;20152;-74
2023/06/29 04:50:15;;;;;;;1.75;1.60;;;19.50;1.00;;;;;;5161293;28;20498;-72
2023/06/29 04:52:53;;;;;;;1.13;1.02;;;19.70;1.00;;;;;;5161476;28;20165;-71
2023/06/29 04:55:28;;;;;;;1.67;1.40;;;19.80;1.00;;;;;;5180975;28;20040;-70
2023/06/29 04:57:59;;;;;;;1.02;1.02;;;19.70;1.00;;;;;;5169711;28;20040;-71
2023/06/29 05:00:32;;;;;;;1.27;1.17;;;19.70;1.00;;;;;;5159464;28;20423;-71
2023/06/29 05:03:03;;;;;;;2.40;1.40;;;19.70;1.00;;;;;;5183588;28;20060;-72
2023/06/29 05:05:36;;;;;;;1.48;1.33;;;19.90;1.00;;;;;;5154432;28;20053;-74
2023/06/29 05:08:07;;;;;;;1.05;1.00;;;20.00;1.00;;;;;;5142877;28;20038;-72
2023/06/29 05:10:39;;;;;;;1.77;1.45;;;19.90;1.00;;;;;;5142763;28;20041;-71
2023/06/29 05:13:13;;;;;;;2.70;1.60;;;19.90;99.90;;;;;;5142671;28;20034;-72
2023/06/29 05:15:48;;;;;;;1.85;1.13;;;19.90;99.90;;;;;;5157953;28;20550;-71
2023/06/29 05:18:19;;;;;;;1.33;1.23;;;19.80;99.90;;;;;;5164153;28;20033;-71
2023/06/29 05:20:53;;;;;;;1.52;1.33;;;19.90;99.90;;;;;;5174281;28;20038;-72
2023/06/29 05:23:24;;;;;;;1.70;1.60;;;20.00;99.90;;;;;;5179429;28;20041;-71
2023/06/29 05:25:57;;;;;;;1.17;1.08;;;20.00;99.90;;;;;;5195203;28;20030;-71
2023/06/29 05:28:31;;;;;;;1.30;1.20;;;20.00;99.90;;;;;;5159903;28;20334;-71
2023/06/29 05:31:03;;;;;;;1.00;0.98;;;19.90;99.90;;;;;;5158040;28;20261;-73
2023/06/29 05:33:35;;;;;;;1.88;1.48;;;19.90;99.90;;;;;;5178894;28;20037;-71
2023/06/29 05:36:09;;;;;;;2.83;1.00;;;19.90;99.90;;;;;;5151193;28;20240;-73
2023/06/29 05:38:41;;;;;;;1.30;1.20;;;20.00;99.90;;;;;;5151658;28;20044;-73
2023/06/29 05:41:12;;;;;;;2.35;1.20;;;20.10;99.90;;;;;;5173082;28;20446;-71
2023/06/29 05:43:43;;;;;;;2.50;1.40;;;20.10;99.90;;;;;;5162060;28;20498;-72
2023/06/29 05:46:15;;;;;;;1.85;1.40;;;20.20;99.90;;;;;;5177946;28;20042;-71
2023/06/29 05:48:48;;;;;;;1.45;1.33;;;20.20;99.90;;;;;;5168272;28;20042;-71
2023/06/29 05:51:20;;;;;;;1.40;1.30;;;20.20;99.90;;;;;;5162385;28;20049;-70
2023/06/29 05:53:53;;;;;;;1.05;1.02;;;20.30;99.90;;;;;;5174030;28;20764;-72
2023/06/29 05:56:27;;;;;;;2.10;1.40;;;20.20;99.90;;;;;;5160402;28;20034;-71
2023/06/29 05:58:58;;;;;;;1.40;1.30;;;20.10;99.90;;;;;;5164005;28;20052;-71
2023/06/29 06:01:29;;;;;;;1.60;1.50;;;20.10;99.90;;;;;;5159359;28;20362;-71
2023/06/29 06:04:02;;;;;;;1.33;1.08;;;20.10;99.90;;;;;;5155686;28;20050;-72
2023/06/29 06:06:43;;;;;;;2.03;1.35;;;20.10;99.90;;;;;;5148389;28;20276;-72
2023/06/29 06:09:16;;;;;;;2.03;1.35;;;20.30;99.90;;;;;;5156490;28;20241;-71
2023/06/29 06:11:50;;;;;;;1.75;1.58;;;20.50;99.90;;;;;;5174300;28;20183;-71
2023/06/29 06:14:21;;;;;;;1.77;1.02;;;20.60;99.90;;;;;;5172150;28;20048;-72
2023/06/29 06:16:53;;;;;;;2.05;1.67;;;20.50;99.90;;;;;;5175339;28;20239;-72
2023/06/29 06:19:30;;;;;;;1.80;1.70;;;20.50;99.90;;;;;;5193201;28;20250;-73
2023/06/29 06:22:01;;;;;;;1.50;1.15;;;20.50;99.90;;;;;;5175816;28;20049;-72
2023/06/29 06:24:33;;;;;;;1.45;1.25;;;20.60;99.90;;;;;;5150845;28;20033;-70
2023/06/29 06:27:05;;;;;;;1.40;1.10;;;20.70;99.90;;;;;;5177290;28;20030;-72
2023/06/29 06:29:39;;;;;;;2.45;1.58;;;20.90;99.90;;;;;;5175601;28;20059;-74
2023/06/29 06:32:10;;;;;;;2.03;1.10;;;21.20;99.90;;;;;;5173994;28;20283;-71
2023/06/29 06:34:43;;;;;;;1.38;1.27;;;21.30;99.90;;;;;;5175198;28;20041;-70
2023/06/29 06:37:17;;;;;;;1.92;1.35;;;21.60;12.80;;;;;;5160097;28;20276;-72
2023/06/29 06:39:48;;;;;;;1.60;1.40;;;21.50;1.00;;;;;;5193943;28;20041;-72
2023/06/29 06:42:19;;;;;;;2.45;1.50;;;21.60;32.30;;;;;;5161808;28;20346;-73
2023/06/29 06:44:55;;;;;;;1.75;0.95;;;21.60;1.00;;;;;;5175556;28;20180;-71
2023/06/29 06:47:29;;;;;;;1.02;1.00;;;21.70;11.80;;;;;;5174030;28;20041;-72
2023/06/29 06:50:04;;;;;;;1.00;0.95;;;22.00;1.00;;;;;;5160168;28;20368;-74
2023/06/29 06:52:35;;;;;;;1.83;1.30;;;22.40;1.00;;;;;;5154467;28;20036;-71
2023/06/29 06:55:07;;;;;;;1.40;1.13;;;22.40;1.00;;;;;;5160650;28;20052;-72
2023/06/29 06:57:39;;;;;;;1.00;0.90;;;22.40;1.00;;;;;;5176380;28;20037;-72
2023/06/29 07:00:13;;;;;;;2.20;1.10;;;22.70;1.00;;;;;;5156379;28;20313;-71
2023/06/29 07:02:45;;;;;;;1.33;0.98;;;22.40;1.00;;;;;;5170519;28;20330;-72
2023/06/29 07:05:19;;;;;;;1.17;1.10;;;22.00;1.00;;;;;;5158355;28;20045;-72
2023/06/29 07:07:51;;;;;;;3.50;1.02;;;22.00;1.00;;;;;;5165183;28;20243;-71
2023/06/29 07:10:22;;;;;;;1.10;1.10;;;22.10;1.00;;;;;;5157625;28;20044;-71
2023/06/29 07:12:53;;;;;;;1.95;1.67;;;22.00;1.00;;;;;;5156845;28;20311;-72
2023/06/29 07:15:25;;;;;;;1.52;1.38;;;22.10;1.00;;;;;;5155075;28;20830;-70
2023/06/29 07:17:56;;;;;;;0.98;0.90;;;22.30;1.00;;;;;;5176196;28;20042;-70
2023/06/29 07:20:28;;;;;;;1.35;1.08;;;22.50;1.00;;;;;;5176905;28;20038;-71
2023/06/29 07:22:59;;;;;;;1.60;1.17;;;23.20;1.00;;;;;;5177961;28;20253;-71
2023/06/29 07:25:32;;;;;;;0.98;0.90;;;23.40;1.00;;;;;;5187805;28;20045;-73
2023/06/29 07:28:09;;;;;;;1.95;1.23;;;23.70;1.00;;;;;;5156736;28;20046;-71
2023/06/29 07:30:43;;;;;;;0.90;0.80;;;24.00;1.00;;;;;;5174232;28;20034;-71
2023/06/29 07:33:14;;;;;;;1.08;0.90;;;24.30;99.90;;;;;;5175649;28;20033;-71
2023/06/29 07:35:45;;;;;;;1.42;0.90;;;24.10;99.90;;;;;;5179726;28;20033;-73
2023/06/29 07:38:16;;;;;;;1.50;0.82;;;24.00;99.90;;;;;;5178453;28;20299;-71
2023/06/29 07:40:50;;;;;;;0.90;0.90;;;24.00;99.90;;;;;;5194101;28;20325;-71
2023/06/29 07:43:21;;;;;;;2.20;1.00;;;24.10;99.90;;;;;;5176255;28;20043;-71
2023/06/29 07:45:52;;;;;;;1.00;0.90;;;23.60;99.90;;;;;;5175615;28;20064;-72
2023/06/29 07:48:23;;;;;;;1.80;1.23;;;23.20;99.90;;;;;;5157095;28;20042;-71
2023/06/29 07:50:55;;;;;;;1.55;1.00;;;23.50;99.90;;;;;;5158313;28;20034;-70
2023/06/29 07:53:26;;;;;;;2.00;1.55;;;23.30;99.90;;;;;;5160033;28;20307;-71
2023/06/29 07:56:01;;;;;;;2.70;1.20;;;23.10;99.90;;;;;;5173116;28;20260;-72
2023/06/29 07:58:32;;;;;;;1.10;0.90;;;23.60;99.90;;;;;;5159383;28;20348;-71
2023/06/29 08:01:03;;;;;;;1.00;0.90;;;23.90;99.90;;;;;;5171547;28;20544;-72
2023/06/29 08:03:34;;;;;;;1.15;1.00;;;24.50;99.90;;;;;;5156143;28;20052;-71
2023/06/29 08:06:10;;;;;;;2.05;1.02;;;24.00;99.90;;;;;;5180476;28;20068;-71
2023/06/29 08:08:46;;;;;;;1.00;1.00;;;23.70;99.90;;;;;;5159417;28;20048;-71
2023/06/29 08:11:17;;;;;;;1.98;0.90;;;23.80;99.90;;;;;;5176056;28;20037;-72
2023/06/29 08:13:49;;;;;;;1.13;1.00;;;24.00;99.90;;;;;;5177525;28;20052;-72
2023/06/29 08:16:21;;;;;;;3.95;1.13;;;23.90;99.90;;;;;;5174973;28;20203;-71
2023/06/29 08:18:55;;;;;;;0.70;0.70;;;24.00;99.90;;;;;;5160226;28;20287;-71
2023/06/29 08:21:26;;;;;;;3.30;0.90;;;24.20;99.90;;;;;;5176868;28;20029;-71
2023/06/29 08:23:57;;;;;;;1.00;1.00;;;24.60;99.90;;;;;;5175473;28;20311;-71
2023/06/29 08:26:28;;;;;;;1.45;1.00;;;24.50;96.90;;;;;;5159957;28;20026;-70
2023/06/29 08:29:00;;;;;;;1.00;1.00;;;24.40;90.10;;;;;;5168380;28;20041;-72
2023/06/29 08:31:31;;;;;;;1.10;1.00;;;24.50;99.90;;;;;;5189346;28;20205;-71
2023/06/29 08:34:02;;;;;;;2.10;1.30;;;24.80;99.90;;;;;;5171399;28;20331;-71
2023/06/29 08:36:35;;;;;;;1.50;1.10;;;24.50;73.00;;;;;;5176069;28;20113;-71
2023/06/29 08:39:11;;;;;;;1.73;1.05;;;25.10;78.40;;;;;;5159265;28;20045;-71
2023/06/29 08:41:45;;;;;;;2.60;0.95;;;25.00;4.20;;;;;;5178696;28;20036;-72
2023/06/29 08:44:16;;;;;;;1.27;0.90;;;24.70;1.00;;;;;;5168787;28;20226;-71
2023/06/29 08:46:52;;;;;;;0.80;0.80;;;24.70;30.30;;;;;;5160648;28;20022;-72
2023/06/29 08:49:24;;;;;;;1.15;0.88;;;25.50;61.20;;;;;;5181218;28;20033;-71
2023/06/29 08:51:59;;;;;;;1.00;0.90;;;25.50;39.50;;;;;;5160907;28;20325;-70
2023/06/29 08:54:32;;;;;;;0.63;0.63;;;26.10;1.00;;;;;;5166040;28;20026;-71
2023/06/29 08:57:07;;;;;;;1.00;0.75;;;26.70;1.00;;;;;;5142082;28;20330;-71
2023/06/29 08:59:40;;;;;;;1.73;1.35;;;25.80;1.00;;;;;;5147032;28;20034;-70
2023/06/29 09:02:12;;;;;;;0.95;0.88;;;25.70;1.00;;;;;;5133697;28;20242;-71
2023/06/29 09:04:45;;;;;;;1.10;1.00;;;25.40;1.00;;;;;;5153059;28;20110;-73
2023/06/29 09:07:16;;;;;;;2.45;0.93;;;25.50;1.00;;;;;;5164302;28;20055;-71
2023/06/29 09:09:50;;;;;;;2.55;0.90;;;25.90;1.00;;;;;;5181390;28;20034;-72
2023/06/29 09:12:22;;;;;;;1.10;1.00;;;26.80;1.00;;;;;;5179745;28;20038;-71
2023/06/29 09:14:58;;;;;;;1.05;1.00;;;26.70;1.00;;;;;;5127369;28;20030;-71
2023/06/29 09:17:33;;;;;;;0.95;0.93;;;26.30;1.00;;;;;;5179367;28;20037;-71
2023/06/29 09:20:13;;;;;;;0.82;0.82;;;26.20;1.00;;;;;;5162259;28;20038;-72
2023/06/29 09:22:52;;;;;;;1.40;0.90;;;27.30;1.00;;;;;;5166590;28;20052;-71
2023/06/29 09:25:26;;;;;;;0.88;0.88;;;27.90;1.00;;;;;;5163087;28;20114;-72
2023/06/29 09:28:04;;;;;;;6.10;1.10;;;27.00;1.00;;;;;;5147091;28;20040;-71
2023/06/29 09:30:38;;;;;;;1.23;0.80;;;26.90;1.00;;;;;;5159937;28;20051;-72
2023/06/29 09:33:11;;;;;;;0.77;0.77;;;27.30;1.00;;;;;;5140047;28;20041;-71
2023/06/29 09:35:51;;;;;;;1.85;1.05;;;26.70;1.00;;;;;;5176844;28;20030;-71
2023/06/29 09:38:34;;;;;;;2.63;1.27;;;26.30;1.00;;;;;;5170151;28;20048;-72
2023/06/29 09:41:07;;;;;;;0.80;0.80;;;25.90;1.00;;;;;;5152885;28;20052;-72
2023/06/29 09:43:41;;;;;;;1.08;0.98;;;26.70;1.00;;;;;;5159593;28;20048;-71
2023/06/29 09:46:12;;;;;;;1.27;0.80;;;27.00;1.00;;;;;;5152293;28;20231;-72
2023/06/29 09:48:48;;;;;;;0.80;0.80;;;26.50;1.00;;;;;;5158130;28;20061;-72
2023/06/29 09:51:20;;;;;;;3.63;1.10;;;27.20;1.00;;;;;;5169651;28;20025;-71
2023/06/29 09:54:02;;;;;;;1.17;1.00;;;27.90;1.00;;;;;;5169394;28;20220;-71
2023/06/29 09:56:40;;;;;;;0.82;0.82;;;27.20;1.00;;;;;;5150659;28;20212;-72
2023/06/29 09:59:14;;;;;;;1.20;1.10;;;27.20;1.00;;;;;;5167980;28;20018;-71
2023/06/29 10:01:46;;;;;;;1.55;1.08;;;28.10;1.00;;;;;;5165083;28;20227;-71
2023/06/29 10:04:18;;;;;;;1.42;1.33;;;28.50;1.00;;;;;;5143796;28;20020;-71
2023/06/29 10:07:05;;;;;;;1.33;1.00;;;28.30;1.00;;;;;;5183093;28;20101;-72
2023/06/29 10:09:39;;;;;;;0.77;0.77;;;28.80;1.00;;;;;;5180397;28;20036;-72
2023/06/29 10:12:14;;;;;;;;;;;28.20;1.00;;;;;;5181836;28;20068;-72
2023/06/29 10:14:51;;;;;;;0.90;0.90;;;28.30;1.00;;;;;;5181371;28;19915;-71
2023/06/29 10:17:27;;;;;;;2.03;1.10;;;27.50;1.00;;;;;;5176541;28;20029;-72
2023/06/29 10:20:01;;;;;;;1.10;1.00;;;26.60;1.00;;;;;;5183334;28;20032;-71
2023/06/29 10:22:38;;;;;;;0.93;0.82;;;26.50;1.00;;;;;;5180084;28;20045;-71
2023/06/29 10:25:15;;;;;;;5.15;1.08;;;27.30;1.00;;;;;;5187996;28;20034;-73
2023/06/29 10:27:52;;;;;;;0.98;0.95;;;27.90;1.00;;;;;;5172221;28;20040;-72
2023/06/29 10:30:23;;;;;;;1.38;0.95;;;28.30;1.00;;;;;;5173022;28;20042;-72
2023/06/29 10:32:57;;;;;;;0.82;0.82;;;28.90;1.00;;;;;;5157316;28;20038;-70
2023/06/29 10:35:31;;;;;;;;;;;30.20;1.00;;;;;;5175728;28;20042;-71
2023/06/29 10:38:12;;;;;;;0.80;0.80;;;31.30;1.00;;;;;;5178415;28;20190;-71
2023/06/29 10:40:54;;;;;;;1.10;0.75;;;32.60;1.00;;;;;;5168946;28;20038;-72
2023/06/29 10:44:04;;;;;;;1.30;0.80;;;32.90;1.00;;;;;;5170531;28;20340;-72
2023/06/29 10:46:49;;;;;;;1.10;0.98;;;32.90;1.00;;;;;;5173730;28;20053;-72
2023/06/29 10:49:25;;;;;;;1.88;1.17;;;32.60;1.00;;;;;;5180990;28;20521;-71
2023/06/29 10:52:09;;;;;;;0.82;0.80;;;32.60;1.00;;;;;;5175215;28;20041;-71
2023/06/29 10:54:43;;;;;;;0.82;0.82;;;32.60;1.00;;;;;;5172093;28;20024;-71
2023/06/29 10:57:20;;;;;;;1.05;0.95;;;32.90;1.00;;;;;;5176014;28;20052;-71
2023/06/29 10:59:51;;;;;;;1.00;1.00;;;34.20;1.00;;;;;;5174685;28;20333;-71
2023/06/29 11:02:27;;;;;;;1.70;0.73;;;34.80;1.00;;;;;;5165702;28;20036;-72
2023/06/29 11:04:59;;;;;;;1.05;0.90;;;35.80;1.00;;;;;;5168057;28;20056;-72
2023/06/29 11:07:30;;;;;;;16.85;1.40;;;36.80;1.00;;;;;;5177793;28;20155;-72
2023/06/29 11:10:02;;;;;;;1.08;0.98;;;36.70;99.90;;;;;;5176982;28;20427;-72
2023/06/29 11:12:37;;;;;;;0.98;0.90;;;36.60;99.90;;;;;;5179008;28;20048;-72
2023/06/29 11:15:11;;;;;;;1.05;0.93;;;34.60;99.90;;;;;;5169458;28;20053;-71
2023/06/29 11:17:44;;;;;;;1.30;1.20;;;34.00;99.90;;;;;;5173507;28;20048;-72
2023/06/29 11:20:16;;;;;;;1.43;1.30;;;33.40;99.90;;;;;;5171597;28;20057;-71
2023/06/29 11:22:51;;;;;;;1.52;0.93;;;33.40;99.90;;;;;;5179011;28;20042;-72
2023/06/29 11:25:23;;;;;;;0.80;0.80;;;32.90;99.90;;;;;;5178143;28;20048;-72
2023/06/29 11:27:58;;;;;;;2.88;1.02;;;32.50;99.90;;;;;;5155707;28;20037;-72
2023/06/29 11:30:30;;;;;;;1.17;0.90;;;33.00;99.90;;;;;;5159499;28;20292;-71
2023/06/29 11:33:03;;;;;;;1.20;1.10;;;33.50;99.90;;;;;;5172998;28;20037;-72
2023/06/29 11:35:37;;;;;;;1.27;1.08;;;34.80;99.90;;;;;;5158521;28;20340;-71
2023/06/29 11:38:08;;;;;;;1.25;1.13;;;35.50;99.90;;;;;;5158220;28;20372;-71
2023/06/29 11:40:39;;;;;;;1.05;0.95;;;37.30;99.90;;;;;;5177860;28;20038;-71
2023/06/29 11:43:16;;;;;;;1.05;0.82;;;38.70;99.90;;;;;;5180762;28;20037;-71
2023/06/29 11:45:48;;;;;;;1.15;1.10;;;39.30;99.90;;;;;;5158753;28;20038;-72
2023/06/29 11:48:19;;;;;;;1.33;1.05;;;39.20;99.90;;;;;;5182133;28;20030;-71
2023/06/29 11:50:57;;;;;;;1.00;0.90;;;39.20;99.90;;;;;;5179481;28;20305;-72
2023/06/29 11:53:28;;;;;;;0.82;0.82;;;38.50;99.90;;;;;;5161379;28;20334;-72
2023/06/29 11:56:00;;;;;;;1.10;1.00;;;38.70;99.90;;;;;;5159694;28;20045;-71
2023/06/29 11:58:33;;;;;;;1.90;1.10;;;38.20;99.90;;;;;;5177160;28;20034;-72
2023/06/29 12:01:04;;;;;;;1.60;0.90;;;38.40;99.90;;;;;;5157115;28;20038;-73
2023/06/29 12:03:39;;;;;;;1.10;1.10;;;38.50;99.90;;;;;;5155290;28;20515;-72
2023/06/29 12:06:10;;;;;;;1.25;1.00;;;37.40;99.90;;;;;;5160655;28;20053;-71
2023/06/29 12:08:42;;;;;;;1.50;1.13;;;35.30;99.90;;;;;;5158330;28;20360;-72
2023/06/29 12:11:18;;;;;;;0.93;0.85;;;35.20;99.90;;;;;;5158704;28;20038;-71
2023/06/29 12:13:50;;;;;;;1.20;0.95;;;35.40;99.90;;;;;;5161394;28;20034;-72
2023/06/29 12:16:21;;;;;;;0.75;0.75;;;34.20;99.90;;;;;;5177129;28;20022;-71
2023/06/29 12:18:55;;;;;;;1.30;1.00;;;35.00;99.90;;;;;;5180070;28;20810;-73
2023/06/29 12:21:26;;;;;;;0.85;0.85;;;36.10;99.90;;;;;;5152893;28;20050;-72
2023/06/29 12:24:04;;;;;;;1.50;1.35;;;35.90;99.90;;;;;;5162276;28;20022;-73
2023/06/29 12:26:37;;;;;;;0.80;0.80;;;35.70;99.90;;;;;;5180447;28;20045;-71
2023/06/29 12:29:09;;;;;;;1.33;1.20;;;37.70;99.90;;;;;;5179095;28;20040;-71
2023/06/29 12:31:45;;;;;;;1.80;1.30;;;39.30;99.90;;;;;;5159556;28;20447;-73
2023/06/29 12:34:25;;;;;;;1.38;1.27;;;38.90;99.90;;;;;;5181338;28;20048;-72
2023/06/29 12:36:57;;;;;;;1.80;1.08;;;38.70;99.90;;;;;;5180318;28;20033;-72
2023/06/29 12:39:31;;;;;;;1.57;1.30;;;37.80;99.90;;;;;;5149552;28;20034;-71
2023/06/29 12:42:08;;;;;;;1.30;1.20;;;38.30;99.90;;;;;;5147535;28;20398;-71
2023/06/29 12:44:39;;;;;;;1.73;1.10;;;36.00;99.90;;;;;;5150113;28;20250;-72
2023/06/29 12:47:11;;;;;;;1.08;1.00;;;36.20;99.90;;;;;;5158542;28;20044;-73
2023/06/29 12:49:44;;;;;;;1.10;1.00;;;35.50;99.90;;;;;;5156344;28;20037;-70
2023/06/29 12:52:16;;;;;;;;;;;35.40;99.90;;;;;;5143102;28;20331;-71
2023/06/29 12:54:47;;;;;;;1.02;0.90;;;36.20;99.90;;;;;;5163916;28;19919;-72
2023/06/29 12:57:25;;;;;;;0.82;0.82;;;36.50;99.90;;;;;;5156863;28;20310;-74
2023/06/29 12:59:58;;;;;;;1.20;1.10;;;36.90;99.90;;;;;;5142750;28;20034;-72
2023/06/29 13:02:30;;;;;;;1.17;1.02;;;38.50;99.90;;;;;;5133255;28;20326;-71
2023/06/29 13:05:02;;;;;;;1.15;1.05;;;39.30;99.90;;;;;;5161046;28;20240;-72
2023/06/29 13:07:35;;;;;;;1.13;0.90;;;37.00;99.90;;;;;;5139429;28;20033;-72
2023/06/29 13:10:06;;;;;;;1.17;0.95;;;37.50;99.90;;;;;;5143877;28;20068;-72
2023/06/29 13:12:39;;;;;;;1.10;1.00;;;38.30;99.90;;;;;;5160738;28;20034;-72
2023/06/29 13:15:13;;;;;;;1.17;1.10;;;38.20;99.90;;;;;;5160522;28;20037;-71
2023/06/29 13:17:44;;;;;;;1.10;1.00;;;39.50;99.90;;;;;;5183601;28;20429;-72
2023/06/29 13:20:18;;;;;;;1.05;1.05;;;38.60;99.90;;;;;;5163889;28;20040;-73
2023/06/29 13:22:49;;;;;;;1.05;0.90;;;39.10;99.90;;;;;;5147954;28;20200;-73
2023/06/29 13:25:21;;;;;;;0.90;0.90;;;38.00;99.90;;;;;;5162740;28;20034;-73
2023/06/29 13:27:54;;;;;;;1.33;1.02;;;38.00;99.90;;;;;;5181233;28;20136;-72
2023/06/29 13:30:26;;;;;;;1.48;1.38;;;39.30;99.90;;;;;;5144091;28;20040;-72
2023/06/29 13:33:02;;;;;;;1.05;1.02;;;40.40;99.90;;;;;;5163638;28;20338;-73
2023/06/29 13:35:36;;;;;;;1.35;1.25;;;40.70;99.90;;;;;;5174807;28;20034;-72
2023/06/29 13:38:15;;;;;;;1.20;1.10;;;39.40;99.90;;;;;;5144932;28;20029;-72
2023/06/29 13:40:46;;;;;;;1.02;0.95;;;40.50;99.90;;;;;;5175809;28;20025;-72
2023/06/29 13:43:20;;;;;;;2.58;2.33;;;42.10;99.90;;;;;;5175528;28;20033;-72